Time;durP1;ratioP1;P1;durP2;ratioP2;P2;SDS_P1;SDS_P2;PMS_P1;PMS_P2;Temp;Humidity;BMP_temperature;BMP_pressure;BME280_temperature;BME280_humidity;BME280_pressure;Samples;Min_cycle;Max_cycle;Signal;HPM_P1;HPM_P2
2021/08/16 00:01:04;;;;;;;6.80;4.50;;;;;;;17.48;77.11;99986.21;93011;1206;87406;-66
2021/08/16 00:03:12;;;;;;;5.90;4.30;;;;;;;17.44;77.15;99989.63;92963;1206;93177;-64
2021/08/16 00:05:20;;;;;;;9.10;4.40;;;;;;;17.45;77.16;99984.83;92960;1206;79949;-64
2021/08/16 00:07:27;;;;;;;6.50;4.10;;;;;;;17.44;77.21;99978.96;92979;1206;80764;-64
2021/08/16 00:09:35;;;;;;;6.90;4.90;;;;;;;17.40;77.21;99972.77;92973;1206;98072;-66
2021/08/16 00:11:42;;;;;;;7.80;4.30;;;;;;;17.43;77.25;99964.37;92991;1206;88693;-66
2021/08/16 00:13:53;;;;;;;6.40;4.40;;;;;;;17.41;77.24;99965.03;92930;1199;93922;-64
2021/08/16 00:16:03;;;;;;;6.10;4.30;;;;;;;17.39;77.21;99961.30;92955;1206;81467;-64
2021/08/16 00:18:14;;;;;;;6.20;3.90;;;;;;;17.38;77.26;99963.52;92995;1206;81953;-63
2021/08/16 00:20:25;;;;;;;6.40;4.30;;;;;;;17.39;77.26;99960.67;92977;1206;99669;-64
2021/08/16 00:22:33;;;;;;;8.00;4.50;;;;;;;17.39;77.42;99958.70;92983;1206;88729;-64
2021/08/16 00:24:40;;;;;;;8.70;4.50;;;;;;;17.35;77.53;99957.45;92965;1206;94806;-64
2021/08/16 00:26:48;;;;;;;6.60;4.30;;;;;;;17.36;77.47;99958.48;92977;1206;80847;-64
2021/08/16 00:28:59;;;;;;;6.40;3.80;;;;;;;17.34;77.67;99960.96;92972;1206;81823;-67
2021/08/16 00:31:10;;;;;;;6.90;4.80;;;;;;;17.34;77.68;99957.63;92967;1206;99337;-66
2021/08/16 00:33:18;;;;;;;8.00;4.80;;;;;;;17.36;77.68;99951.67;92980;1206;87111;-64
2021/08/16 00:35:25;;;;;;;6.80;4.50;;;;;;;17.41;77.73;99949.25;92963;1206;94018;-63
2021/08/16 00:37:33;;;;;;;8.10;4.50;;;;;;;17.41;77.70;99948.31;92957;1206;78501;-64
2021/08/16 00:39:41;;;;;;;8.20;4.30;;;;;;;17.39;77.78;99948.66;92980;1206;81725;-66
2021/08/16 00:41:50;;;;;;;9.40;4.90;;;;;;;17.39;77.80;99947.14;92966;1206;98504;-67
2021/08/16 00:44:02;;;;;;;8.70;4.20;;;;;;;17.38;77.80;99939.48;92918;1206;87670;-63
2021/08/16 00:46:09;;;;;;;9.20;4.50;;;;;;;17.48;77.51;99938.13;92969;1206;93678;-63
2021/08/16 00:48:17;;;;;;;6.90;4.20;;;;;;;17.53;77.44;99925.90;92968;1206;78285;-67
2021/08/16 00:50:25;;;;;;;6.70;4.40;;;;;;;17.62;77.25;99922.52;92981;1206;80854;-66
2021/08/16 00:52:34;;;;;;;9.30;4.60;;;;;;;17.71;77.03;99923.83;92954;1206;98712;-66
2021/08/16 00:54:42;;;;;;;7.80;4.40;;;;;;;17.75;76.75;99922.25;92972;1206;88420;-66
2021/08/16 00:56:49;;;;;;;7.40;4.40;;;;;;;17.74;76.73;99917.98;92970;1206;94022;-66
2021/08/16 00:59:02;;;;;;;7.10;4.30;;;;;;;17.69;76.56;99922.04;92928;1206;80996;-66
2021/08/16 01:01:10;;;;;;;8.20;4.40;;;;;;;17.63;76.70;99927.07;93016;1206;82858;-68
2021/08/16 01:03:18;;;;;;;8.50;4.40;;;;;;;17.59;76.80;99929.84;92970;1206;98777;-65
2021/08/16 01:05:26;;;;;;;7.60;4.00;;;;;;;17.54;76.89;99928.20;92955;1206;88825;-63
2021/08/16 01:07:37;;;;;;;7.30;4.30;;;;;;;17.49;76.96;99940.12;92947;1206;94614;-63
2021/08/16 01:09:44;;;;;;;6.60;4.00;;;;;;;17.48;76.91;99943.98;92952;1206;80256;-63
2021/08/16 01:11:52;;;;;;;6.60;4.20;;;;;;;17.45;77.05;99943.31;92962;1206;81538;-63
2021/08/16 01:14:00;;;;;;;6.30;4.60;;;;;;;17.43;77.09;99939.41;92994;1206;97620;-66
2021/08/16 01:16:09;;;;;;;8.40;4.30;;;;;;;17.41;77.14;99932.98;92996;1206;87020;-66
2021/08/16 01:18:16;;;;;;;5.40;3.90;;;;;;;17.39;77.14;99929.77;93003;1206;93974;-63
2021/08/16 01:20:24;;;;;;;8.00;4.20;;;;;;;17.39;77.18;99927.98;92951;1206;79890;-63
2021/08/16 01:22:37;;;;;;;5.60;3.70;;;;;;;17.38;77.24;99923.09;93006;1206;82107;-63
2021/08/16 01:24:45;;;;;;;8.30;4.00;;;;;;;17.35;77.18;99917.90;92966;1206;97205;-65
2021/08/16 01:26:56;;;;;;;8.40;4.70;;;;;;;17.32;77.17;99920.26;92983;1206;87094;-65
2021/08/16 01:29:05;;;;;;;6.10;4.20;;;;;;;17.29;77.23;99916.75;92984;1206;93025;-67
2021/08/16 01:31:13;;;;;;;8.40;4.60;;;;;;;17.25;77.27;99918.04;92980;1206;80601;-63
2021/08/16 01:33:24;;;;;;;9.40;4.20;;;;;;;17.21;77.33;99917.95;92987;1206;81212;-63
2021/08/16 01:35:31;;;;;;;6.60;3.80;;;;;;;17.19;77.44;99921.42;92975;1206;98928;-66
2021/08/16 01:37:40;;;;;;;5.10;3.80;;;;;;;17.17;77.56;99917.45;92956;1206;86906;-66
2021/08/16 01:39:47;;;;;;;7.20;3.80;;;;;;;17.16;77.65;99909.52;92999;1206;94698;-64
2021/08/16 01:41:56;;;;;;;5.00;3.70;;;;;;;17.17;77.68;99901.56;92967;1206;78564;-63
2021/08/16 01:44:04;;;;;;;8.00;4.60;;;;;;;17.17;77.66;99902.98;92993;1206;80457;-63
2021/08/16 01:46:11;;;;;;;7.80;4.30;;;;;;;17.19;77.54;99898.55;92980;1206;97316;-63
2021/08/16 01:48:19;;;;;;;5.90;4.10;;;;;;;17.29;77.29;99892.78;93011;1206;87066;-63
2021/08/16 01:50:28;;;;;;;5.60;4.40;;;;;;;17.37;77.17;99892.20;92968;1206;94507;-63
2021/08/16 01:52:35;;;;;;;6.80;4.30;;;;;;;17.40;77.14;99895.11;92971;1206;77713;-63
2021/08/16 01:54:43;;;;;;;5.70;4.10;;;;;;;17.41;77.00;99890.16;93024;1206;79481;-67
2021/08/16 01:56:50;;;;;;;5.30;4.00;;;;;;;17.43;76.91;99886.77;92960;1206;97315;-67
2021/08/16 01:58:58;;;;;;;8.20;4.20;;;;;;;17.46;76.85;99891.58;92989;1206;88765;-67
2021/08/16 02:01:05;;;;;;;8.70;4.90;;;;;;;17.47;76.72;99896.02;92971;1206;94381;-67
2021/08/16 02:03:13;;;;;;;6.10;4.60;;;;;;;17.52;76.67;99893.37;92999;1206;79004;-65
2021/08/16 02:05:21;;;;;;;8.10;4.70;;;;;;;17.58;76.62;99891.86;92982;1206;81558;-63
2021/08/16 02:07:28;;;;;;;7.80;4.70;;;;;;;17.65;76.38;99887.60;92980;1206;97139;-63
2021/08/16 02:09:36;;;;;;;7.70;4.60;;;;;;;17.72;76.31;99881.65;93005;1206;88264;-63
2021/08/16 02:11:43;;;;;;;7.00;4.80;;;;;;;17.78;76.07;99877.38;92949;1206;93751;-62
2021/08/16 02:13:51;;;;;;;7.70;5.20;;;;;;;17.88;75.86;99874.52;92971;1206;81070;-66
2021/08/16 02:15:58;;;;;;;7.20;5.00;;;;;;;17.98;75.69;99872.13;92985;1206;81438;-66
2021/08/16 02:18:06;;;;;;;6.00;4.70;;;;;;;18.08;75.55;99873.27;92970;1206;98130;-66
2021/08/16 02:20:15;;;;;;;7.40;4.80;;;;;;;18.17;75.28;99872.68;92983;1206;85657;-67
2021/08/16 02:22:23;;;;;;;7.70;4.90;;;;;;;18.24;75.07;99867.37;92990;1199;92554;-66
2021/08/16 02:24:30;;;;;;;10.10;5.40;;;;;;;18.32;74.99;99865.67;92994;1205;80188;-67
2021/08/16 02:26:38;;;;;;;7.90;5.00;;;;;;;18.38;74.69;99858.75;92987;1206;81191;-67
2021/08/16 02:28:49;;;;;;;6.40;5.20;;;;;;;18.45;74.60;99853.76;92994;1206;97248;-63
2021/08/16 02:30:56;;;;;;;6.50;4.70;;;;;;;18.50;74.38;99852.76;92996;1206;86477;-62
2021/08/16 02:33:04;;;;;;;6.70;4.90;;;;;;;18.56;74.28;99854.59;92979;1206;93592;-63
2021/08/16 02:35:13;;;;;;;7.70;5.60;;;;;;;18.59;74.18;99843.79;92948;1206;77921;-63
2021/08/16 02:37:21;;;;;;;6.10;4.90;;;;;;;18.61;74.02;99844.26;93004;1198;80624;-63
2021/08/16 02:39:28;;;;;;;8.20;5.50;;;;;;;18.63;73.93;99849.70;92974;1206;99493;-62
2021/08/16 02:41:36;;;;;;;6.80;5.20;;;;;;;18.65;73.78;99857.00;93004;1206;87395;-63
2021/08/16 02:43:44;;;;;;;10.30;6.20;;;;;;;18.69;73.71;99863.13;92975;1206;95090;-63
2021/08/16 02:45:51;;;;;;;7.50;5.90;;;;;;;18.72;73.57;99859.39;92971;1206;79341;-63
2021/08/16 02:48:00;;;;;;;8.90;5.60;;;;;;;18.74;73.48;99862.36;92992;1198;80345;-66
2021/08/16 02:50:10;;;;;;;6.50;5.70;;;;;;;18.76;73.38;99856.48;92960;1206;98117;-63
2021/08/16 02:52:17;;;;;;;6.60;5.50;;;;;;;18.79;73.35;99850.11;92976;1206;88052;-63
2021/08/16 02:54:25;;;;;;;8.40;5.40;;;;;;;18.82;73.13;99845.11;92968;1206;93005;-63
2021/08/16 02:56:33;;;;;;;7.30;5.50;;;;;;;18.86;73.03;99846.02;93002;1206;79221;-63
2021/08/16 02:58:40;;;;;;;6.60;5.50;;;;;;;18.90;72.97;99844.60;92921;1206;82021;-67
2021/08/16 03:00:48;;;;;;;8.80;5.30;;;;;;;18.93;72.74;99845.88;93011;1206;97923;-67
2021/08/16 03:02:56;;;;;;;8.80;5.70;;;;;;;18.95;72.70;99843.18;92990;1206;87932;-67
2021/08/16 03:05:04;;;;;;;7.10;6.00;;;;;;;18.97;72.53;99839.52;92952;1206;94029;-67
2021/08/16 03:07:12;;;;;;;7.50;5.50;;;;;;;19.00;72.56;99838.67;92984;1206;79399;-67
2021/08/16 03:09:24;;;;;;;7.60;6.10;;;;;;;19.03;72.44;99834.98;92995;1206;82232;-63
2021/08/16 03:11:34;;;;;;;7.00;5.40;;;;;;;19.04;72.36;99827.06;92964;1206;99435;-63
2021/08/16 03:13:42;;;;;;;8.40;5.90;;;;;;;19.07;72.14;99829.48;92971;1206;86463;-62
2021/08/16 03:15:49;;;;;;;7.50;6.00;;;;;;;19.07;72.15;99823.42;92955;1206;93715;-63
2021/08/16 03:18:06;;;;;;;8.40;5.70;;;;;;;19.07;72.05;99824.23;92979;1206;81360;-62
2021/08/16 03:20:15;;;;;;;8.40;5.60;;;;;;;19.08;71.89;99828.91;92995;1206;82041;-68
2021/08/16 03:22:23;;;;;;;9.40;6.20;;;;;;;19.10;71.82;99829.81;92993;1206;97371;-67
2021/08/16 03:24:32;;;;;;;8.20;5.50;;;;;;;19.12;71.86;99827.35;92970;1206;88430;-63
2021/08/16 03:26:42;;;;;;;8.90;5.90;;;;;;;19.14;71.82;99830.23;92990;1206;94414;-63
2021/08/16 03:28:50;;;;;;;8.20;5.50;;;;;;;19.16;71.62;99829.04;93005;1206;78103;-67
2021/08/16 03:31:01;;;;;;;6.70;5.30;;;;;;;19.16;71.58;99834.04;93026;1206;81141;-67
2021/08/16 03:33:09;;;;;;;7.10;6.40;;;;;;;19.17;71.51;99833.77;92980;1206;97790;-67
2021/08/16 03:35:17;;;;;;;9.00;6.30;;;;;;;19.17;71.46;99831.19;93011;1206;86552;-66
2021/08/16 03:37:25;;;;;;;6.70;5.50;;;;;;;19.19;71.54;99832.08;92953;1206;94162;-67
2021/08/16 03:39:32;;;;;;;10.50;6.70;;;;;;;19.21;71.49;99829.69;92975;1206;80093;-67
2021/08/16 03:41:40;;;;;;;7.50;5.50;;;;;;;19.22;71.54;99823.90;92964;1206;81348;-67
2021/08/16 03:43:48;;;;;;;8.40;5.60;;;;;;;19.24;71.53;99818.11;92976;1206;98934;-67
2021/08/16 03:45:55;;;;;;;8.20;6.20;;;;;;;19.25;71.34;99814.95;92980;1206;87490;-67
2021/08/16 03:48:03;;;;;;;8.50;5.80;;;;;;;19.27;71.29;99814.14;92966;1206;94675;-64
2021/08/16 03:50:13;;;;;;;8.10;6.40;;;;;;;19.28;71.29;99814.26;92978;1206;79080;-63
2021/08/16 03:52:20;;;;;;;7.00;5.80;;;;;;;19.31;71.36;99817.68;93005;1206;82578;-63
2021/08/16 03:54:28;;;;;;;10.70;6.40;;;;;;;19.32;71.34;99813.69;93014;1206;98155;-66
2021/08/16 03:56:36;;;;;;;7.30;6.20;;;;;;;19.31;71.25;99814.07;92962;1205;88152;-66
2021/08/16 03:58:43;;;;;;;8.30;5.50;;;;;;;19.29;71.26;99811.70;92986;1206;94543;-63
2021/08/16 04:00:51;;;;;;;9.90;6.40;;;;;;;19.30;71.28;99802.89;92966;1206;77764;-63
2021/08/16 04:03:01;;;;;;;9.10;6.10;;;;;;;19.31;71.23;99806.35;92997;1206;81534;-65
2021/08/16 04:05:12;;;;;;;8.60;6.00;;;;;;;19.32;71.24;99800.49;92960;1206;98929;-63
2021/08/16 04:07:19;;;;;;;8.60;6.70;;;;;;;19.35;71.25;99803.26;92839;1209;88899;-63
2021/08/16 04:09:27;;;;;;;8.30;6.50;;;;;;;19.36;71.30;99800.69;92977;1206;94678;-67
2021/08/16 04:11:34;;;;;;;9.70;6.30;;;;;;;19.38;71.23;99802.94;92964;1206;80819;-67
2021/08/16 04:13:42;;;;;;;9.00;6.60;;;;;;;19.42;71.22;99805.77;93022;1206;82111;-63
2021/08/16 04:15:49;;;;;;;8.50;6.20;;;;;;;19.45;71.21;99803.91;92978;1206;98522;-63
2021/08/16 04:17:57;;;;;;;9.10;6.80;;;;;;;19.47;71.24;99802.02;92985;1206;86750;-65
2021/08/16 04:20:07;;;;;;;7.80;6.90;;;;;;;19.50;71.33;99800.84;92981;1198;92763;-63
2021/08/16 04:22:18;;;;;;;9.40;6.80;;;;;;;19.51;71.35;99799.03;92957;1206;81186;-63
2021/08/16 04:24:25;;;;;;;9.00;6.40;;;;;;;19.53;71.16;99793.67;92961;1199;80832;-63
2021/08/16 04:26:33;;;;;;;9.50;7.30;;;;;;;19.55;71.18;99789.15;92978;1206;99037;-63
2021/08/16 04:28:41;;;;;;;10.90;7.60;;;;;;;19.58;71.23;99795.36;92999;1206;86377;-67
2021/08/16 04:30:48;;;;;;;9.30;7.60;;;;;;;19.61;71.33;99796.75;92967;1206;94197;-67
2021/08/16 04:32:59;;;;;;;8.70;7.70;;;;;;;19.65;71.45;99797.39;92911;1206;79389;-67
2021/08/16 04:35:11;;;;;;;10.50;8.90;;;;;;;19.68;71.36;99803.06;92961;1206;81859;-67
2021/08/16 04:37:19;;;;;;;10.60;8.20;;;;;;;19.71;71.32;99803.30;93006;1206;99169;-67
2021/08/16 04:39:26;;;;;;;12.50;8.60;;;;;;;19.74;71.46;99801.35;93028;1206;88239;-67
2021/08/16 04:41:34;;;;;;;10.80;9.40;;;;;;;19.76;71.33;99803.78;92978;1206;92649;-67
2021/08/16 04:43:42;;;;;;;13.00;9.60;;;;;;;19.80;71.38;99798.00;92948;1206;79549;-63
2021/08/16 04:45:50;;;;;;;11.90;9.30;;;;;;;19.85;71.41;99798.14;92978;1206;80453;-64
2021/08/16 04:48:00;;;;;;;11.40;9.40;;;;;;;19.87;71.30;99799.89;92988;1206;98505;-63
2021/08/16 04:50:09;;;;;;;12.20;8.90;;;;;;;19.90;71.41;99801.79;92980;1207;88592;-63
2021/08/16 04:52:17;;;;;;;12.10;8.90;;;;;;;19.93;71.32;99800.43;92988;1206;95240;-63
2021/08/16 04:54:25;;;;;;;13.70;10.30;;;;;;;19.99;71.48;99801.95;92951;1205;79002;-63
2021/08/16 04:56:33;;;;;;;11.20;9.80;;;;;;;20.05;71.44;99804.40;92969;1206;81594;-63
2021/08/16 04:58:40;;;;;;;11.90;9.00;;;;;;;20.09;71.26;99806.94;92984;1206;99001;-67
2021/08/16 05:00:48;;;;;;;11.20;9.20;;;;;;;20.10;71.31;99803.16;92973;1206;86938;-67
2021/08/16 05:02:59;;;;;;;14.60;9.30;;;;;;;20.13;71.22;99804.66;92999;1206;92620;-67
2021/08/16 05:05:10;;;;;;;9.70;8.70;;;;;;;20.17;71.15;99806.11;92983;1206;79181;-64
2021/08/16 05:07:18;;;;;;;9.30;8.40;;;;;;;20.22;71.28;99804.61;93033;1206;82049;-64
2021/08/16 05:09:25;;;;;;;12.10;8.60;;;;;;;20.27;71.26;99800.09;92978;1206;99813;-63
2021/08/16 05:11:33;;;;;;;11.70;9.20;;;;;;;20.28;71.18;99799.06;93000;1206;86543;-63
2021/08/16 05:13:40;;;;;;;10.80;8.70;;;;;;;20.29;71.13;99794.23;92981;1206;93887;-64
2021/08/16 05:15:48;;;;;;;13.10;8.20;;;;;;;20.29;71.15;99796.39;92975;1206;81281;-64
2021/08/16 05:17:58;;;;;;;11.50;9.50;;;;;;;20.33;71.23;99806.15;93005;1200;80386;-63
2021/08/16 05:20:09;;;;;;;11.40;9.00;;;;;;;20.35;71.26;99804.98;92974;1206;98414;-63
2021/08/16 05:22:17;;;;;;;11.20;10.00;;;;;;;20.40;71.34;99802.40;93022;1206;88660;-63
2021/08/16 05:24:24;;;;;;;11.00;9.30;;;;;;;20.44;71.29;99802.81;92929;1199;93588;-63
2021/08/16 05:26:32;;;;;;;11.40;9.70;;;;;;;20.45;71.45;99800.79;92963;1206;81783;-63
2021/08/16 05:28:40;;;;;;;11.20;10.10;;;;;;;20.50;71.31;99799.55;92988;1206;81335;-63
2021/08/16 05:30:47;;;;;;;13.90;10.50;;;;;;;20.54;71.34;99804.73;92972;1206;98625;-63
2021/08/16 05:32:55;;;;;;;12.40;9.90;;;;;;;20.52;71.52;99797.41;93022;1206;87503;-63
2021/08/16 05:35:03;;;;;;;10.90;9.80;;;;;;;20.54;71.56;99793.64;92983;1206;93902;-68
2021/08/16 05:37:11;;;;;;;11.50;9.40;;;;;;;20.57;71.61;99789.85;92994;1206;79197;-68
2021/08/16 05:39:18;;;;;;;12.50;9.80;;;;;;;20.62;71.47;99792.73;92988;1206;81420;-67
2021/08/16 05:41:26;;;;;;;14.30;10.30;;;;;;;20.68;71.64;99790.11;92994;1206;98127;-67
2021/08/16 05:43:33;;;;;;;13.80;10.80;;;;;;;20.74;71.63;99791.71;92976;1206;86557;-67
2021/08/16 05:45:41;;;;;;;13.90;11.00;;;;;;;20.79;71.62;99789.33;92956;1206;93920;-68
2021/08/16 05:47:49;;;;;;;11.90;10.60;;;;;;;20.88;71.55;99784.55;92968;1206;78320;-68
2021/08/16 05:49:57;;;;;;;13.00;11.10;;;;;;;20.97;71.52;99780.89;93004;1206;81582;-68
2021/08/16 05:52:06;;;;;;;14.60;10.50;;;;;;;21.02;71.64;99773.16;92971;1206;98988;-67
2021/08/16 05:54:13;;;;;;;14.00;10.00;;;;;;;21.11;71.57;99772.65;93024;1206;88084;-68
2021/08/16 05:56:21;;;;;;;12.10;10.70;;;;;;;21.31;71.56;99771.95;92993;1206;94588;-68
2021/08/16 05:58:28;;;;;;;17.10;11.30;;;;;;;21.53;71.43;99771.01;92980;1206;79816;-68
2021/08/16 06:00:40;;;;;;;11.70;10.50;;;;;;;21.91;71.32;99774.82;92991;1206;80464;-68
2021/08/16 06:02:48;;;;;;;12.00;10.80;;;;;;;22.18;71.00;99775.08;93016;1206;98576;-68
2021/08/16 06:04:55;;;;;;;13.30;10.40;;;;;;;22.35;70.61;99775.52;93003;1206;87322;-64
2021/08/16 06:07:03;;;;;;;11.80;10.50;;;;;;;22.47;70.42;99770.77;92950;1215;94810;-64
2021/08/16 06:09:11;;;;;;;11.00;9.90;;;;;;;22.51;69.99;99769.55;92907;1206;82508;-69
2021/08/16 06:11:18;;;;;;;14.90;10.50;;;;;;;22.52;69.89;99769.61;92985;1206;81874;-68
2021/08/16 06:13:26;;;;;;;13.90;10.80;;;;;;;22.51;69.60;99760.13;92973;1206;99095;-64
2021/08/16 06:15:37;;;;;;;11.70;10.10;;;;;;;22.53;69.55;99769.80;92980;1206;87822;-64
2021/08/16 06:17:44;;;;;;;13.00;10.90;;;;;;;22.65;69.65;99769.34;92976;1206;93121;-64
2021/08/16 06:19:52;;;;;;;11.80;10.50;;;;;;;22.80;69.42;99768.65;92947;1206;78546;-64
2021/08/16 06:21:59;;;;;;;12.50;10.70;;;;;;;22.93;69.33;99760.42;92977;1206;81573;-64
2021/08/16 06:24:08;;;;;;;11.70;10.20;;;;;;;23.00;69.07;99750.02;92979;1206;99918;-68
2021/08/16 06:26:17;;;;;;;13.10;10.70;;;;;;;23.13;69.01;99746.45;92993;1206;88058;-68
2021/08/16 06:28:25;;;;;;;11.30;10.20;;;;;;;23.33;68.79;99744.19;92954;1206;94599;-68
2021/08/16 06:30:32;;;;;;;11.70;9.80;;;;;;;23.44;68.56;99737.56;92990;1206;80490;-68
2021/08/16 06:32:40;;;;;;;10.80;9.30;;;;;;;23.70;68.32;99733.89;92984;1206;80845;-68
2021/08/16 06:34:51;;;;;;;12.40;9.70;;;;;;;23.89;68.03;99740.19;92953;1206;98769;-68
2021/08/16 06:36:58;;;;;;;13.30;10.30;;;;;;;24.18;67.70;99739.05;93004;1206;86469;-67
2021/08/16 06:39:08;;;;;;;12.30;10.00;;;;;;;24.20;67.16;99740.64;92970;1206;94255;-63
2021/08/16 06:41:20;;;;;;;13.10;10.00;;;;;;;24.12;66.69;99739.39;92991;1206;79423;-64
2021/08/16 06:43:32;;;;;;;13.10;8.90;;;;;;;24.41;66.65;99743.34;93000;1206;80759;-68
2021/08/16 06:45:39;;;;;;;12.00;8.40;;;;;;;24.70;66.22;99735.56;92975;1206;99107;-68
2021/08/16 06:47:47;;;;;;;10.00;9.00;;;;;;;24.88;65.65;99733.54;92976;1206;88082;-68
2021/08/16 06:49:54;;;;;;;10.50;8.80;;;;;;;25.07;65.71;99729.88;92995;1206;94340;-68
2021/08/16 06:52:02;;;;;;;9.70;8.50;;;;;;;25.25;65.28;99725.83;92964;1206;77225;-68
2021/08/16 06:54:10;;;;;;;9.30;8.20;;;;;;;25.12;64.82;99721.39;92978;1206;82266;-65
2021/08/16 06:56:21;;;;;;;9.30;7.90;;;;;;;24.94;64.61;99723.27;92970;1206;97861;-65
2021/08/16 06:58:32;;;;;;;8.90;7.90;;;;;;;24.95;64.82;99721.52;92999;1206;88377;-64
2021/08/16 07:00:43;;;;;;;8.40;7.00;;;;;;;24.95;64.76;99718.34;92944;1206;94145;-64
2021/08/16 07:02:51;;;;;;;8.90;7.60;;;;;;;24.99;64.79;99710.38;92986;1206;78015;-64
2021/08/16 07:05:00;;;;;;;11.00;8.30;;;;;;;25.08;64.63;99710.41;92986;1206;80919;-68
2021/08/16 07:07:07;;;;;;;8.30;7.10;;;;;;;25.23;64.45;99708.17;92993;1206;98352;-68
2021/08/16 07:09:15;;;;;;;8.40;7.50;;;;;;;25.47;64.17;99704.66;92949;1206;88269;-68
2021/08/16 07:11:23;;;;;;;8.00;6.80;;;;;;;26.13;63.85;99702.44;92974;1206;93782;-68
2021/08/16 07:13:32;;;;;;;9.70;7.00;;;;;;;27.14;62.57;99700.00;92908;1206;78598;-68
2021/08/16 07:15:40;;;;;;;7.80;6.80;;;;;;;27.46;61.05;99698.95;93000;1206;80965;-68
2021/08/16 07:17:47;;;;;;;8.50;6.80;;;;;;;27.44;60.83;99694.56;92993;1206;98472;-67
2021/08/16 07:19:55;;;;;;;9.00;6.60;;;;;;;27.50;60.46;99691.90;92984;1206;88366;-68
2021/08/16 07:22:02;;;;;;;9.30;6.70;;;;;;;27.62;60.37;99690.59;92958;1206;94132;-68
2021/08/16 07:24:13;;;;;;;7.70;6.20;;;;;;;27.57;60.06;99690.80;92963;1206;79100;-68
2021/08/16 07:26:21;;;;;;;7.70;6.60;;;;;;;27.54;60.11;99687.35;93019;1206;81298;-68
2021/08/16 07:28:30;;;;;;;7.40;6.50;;;;;;;27.53;59.89;99685.61;93011;1206;98679;-68
2021/08/16 07:30:38;;;;;;;7.50;6.70;;;;;;;27.55;58.76;99685.05;92987;1206;88712;-68
2021/08/16 07:32:46;;;;;;;7.30;6.00;;;;;;;27.73;59.06;99679.40;92963;1206;93458;-68
2021/08/16 07:34:53;;;;;;;9.10;6.30;;;;;;;28.14;58.92;99671.23;93008;1206;78394;-68
2021/08/16 07:37:01;;;;;;;7.30;6.30;;;;;;;29.06;57.64;99668.20;92996;1206;80526;-67
2021/08/16 07:39:09;;;;;;;7.30;6.20;;;;;;;30.42;56.36;99674.05;92974;1206;98584;-66
2021/08/16 07:41:18;;;;;;;8.10;6.10;;;;;;;31.74;55.05;99673.36;92976;1206;88514;-66
2021/08/16 07:43:25;;;;;;;6.80;5.70;;;;;;;32.98;52.83;99675.69;92960;1206;95790;-64
2021/08/16 07:45:33;;;;;;;6.20;5.50;;;;;;;33.63;50.28;99664.33;92975;1206;78632;-65
2021/08/16 07:47:42;;;;;;;7.20;5.70;;;;;;;33.99;49.51;99659.59;93014;1206;81280;-64
2021/08/16 07:49:50;;;;;;;7.20;5.50;;;;;;;34.73;48.50;99660.16;92980;1206;98924;-66
2021/08/16 07:51:57;;;;;;;6.70;6.00;;;;;;;35.42;47.50;99658.64;92986;1206;86315;-68
2021/08/16 07:54:08;;;;;;;6.70;4.80;;;;;;;35.88;45.44;99654.09;92835;1209;94543;-67
2021/08/16 07:56:18;;;;;;;7.10;5.10;;;;;;;36.25;44.59;99653.44;92967;1206;78453;-64
2021/08/16 07:58:27;;;;;;;7.00;4.90;;;;;;;36.63;44.18;99649.18;92966;1206;82711;-64
2021/08/16 08:00:34;;;;;;;6.50;4.30;;;;;;;37.10;42.47;99652.63;92968;1206;98796;-65
2021/08/16 08:02:45;;;;;;;5.80;4.50;;;;;;;37.06;40.91;99652.19;93010;1206;88381;-65
2021/08/16 08:04:52;;;;;;;6.20;4.60;;;;;;;37.22;39.59;99655.52;92934;1206;93804;-66
2021/08/16 08:07:01;;;;;;;5.00;4.50;;;;;;;37.55;40.12;99655.09;92970;1206;79641;-68
2021/08/16 08:09:12;;;;;;;7.60;4.80;;;;;;;37.85;39.56;99662.31;93048;1206;82317;-66
2021/08/16 08:11:20;;;;;;;4.80;4.30;;;;;;;38.42;38.92;99661.81;92989;1206;97650;-67
2021/08/16 08:13:27;;;;;;;6.00;4.70;;;;;;;38.58;37.99;99662.17;92967;1206;86361;-67
2021/08/16 08:15:35;;;;;;;4.50;4.00;;;;;;;38.49;37.15;99668.95;92966;1206;93976;-67
2021/08/16 08:17:43;;;;;;;4.90;4.10;;;;;;;38.65;36.90;99669.70;92913;1206;78643;-67
2021/08/16 08:19:51;;;;;;;5.40;4.90;;;;;;;38.38;36.75;99673.34;92987;1206;81658;-65
2021/08/16 08:21:58;;;;;;;5.50;4.00;;;;;;;38.25;36.14;99676.60;92993;1206;98383;-65
2021/08/16 08:24:07;;;;;;;4.80;4.40;;;;;;;38.17;36.18;99676.61;92997;1206;88073;-65
2021/08/16 08:26:14;;;;;;;4.70;4.00;;;;;;;37.89;36.10;99683.53;92971;1199;93930;-65
2021/08/16 08:28:22;;;;;;;5.20;4.10;;;;;;;36.88;36.21;99690.79;92953;1206;78947;-67
2021/08/16 08:30:29;;;;;;;4.50;4.10;;;;;;;35.76;36.82;99699.73;92942;1200;81128;-67
2021/08/16 08:32:53;;;;;;;5.10;4.10;;;;;;;34.86;37.66;99712.17;92968;1206;99731;-66
2021/08/16 08:35:01;;;;;;;24.20;21.80;;;;;;;33.87;38.11;99716.31;92996;1206;86268;-68
2021/08/16 08:37:13;;;;;;;15.70;14.30;;;;;;;33.00;39.29;99714.64;92954;1206;93696;-67
2021/08/16 08:39:20;;;;;;;6.00;4.20;;;;;;;32.24;40.14;99711.31;92977;1206;78865;-68
2021/08/16 08:41:33;;;;;;;4.70;4.20;;;;;;;31.53;40.97;99705.48;92996;1206;81835;-69
2021/08/16 08:43:42;;;;;;;4.60;4.20;;;;;;;30.86;42.00;99701.29;92984;1206;99636;-71
2021/08/16 08:45:53;;;;;;;6.20;4.00;;;;;;;30.28;42.47;99696.50;93012;1206;88267;-77
2021/08/16 08:48:01;;;;;;;4.40;3.90;;;;;;;29.81;43.25;99685.88;92954;1206;93378;-68
2021/08/16 08:50:10;;;;;;;7.20;5.10;;;;;;;29.25;44.15;99680.70;92989;1206;80066;-66
2021/08/16 08:52:18;;;;;;;6.40;4.60;;;;;;;28.77;45.50;99683.04;93005;1206;82019;-67
2021/08/16 08:54:26;;;;;;;5.10;4.60;;;;;;;28.33;46.97;99692.83;93001;1206;99105;-67
2021/08/16 08:56:34;;;;;;;5.70;4.50;;;;;;;27.84;48.58;99698.07;93005;1206;88426;-67
2021/08/16 08:58:42;;;;;;;5.80;4.40;;;;;;;27.67;49.36;99696.72;92982;1206;93907;-70
2021/08/16 09:00:50;;;;;;;6.80;4.50;;;;;;;27.46;50.43;99698.16;92960;1206;80043;-69
2021/08/16 09:03:04;;;;;;;6.30;4.60;;;;;;;27.28;51.35;99685.91;92987;1206;81340;-68
2021/08/16 09:05:16;;;;;;;5.60;4.40;;;;;;;27.05;51.86;99675.58;92985;1206;98231;-70
2021/08/16 09:07:38;;;;;;;6.70;4.80;;;;;;;26.81;52.76;99668.88;92996;1206;87362;-70
2021/08/16 09:09:56;;;;;;;7.40;5.00;;;;;;;26.58;54.01;99661.60;92971;1206;94372;-68
2021/08/16 09:12:04;;;;;;;5.20;4.50;;;;;;;26.39;54.48;99647.63;92978;1206;78420;-68
2021/08/16 09:14:12;;;;;;;7.10;4.60;;;;;;;26.23;55.33;99658.09;93042;1206;81799;-68
2021/08/16 09:16:23;;;;;;;5.30;4.70;;;;;;;25.89;56.25;99675.97;92960;1206;99209;-68
2021/08/16 09:18:34;;;;;;;5.90;4.60;;;;;;;25.78;57.24;99676.13;93038;1206;85757;-67
2021/08/16 09:20:53;;;;;;;4.40;4.00;;;;;;;25.69;57.78;99672.95;92963;1206;93349;-67
2021/08/16 09:23:03;;;;;;;7.00;4.90;;;;;;;25.89;58.34;99679.58;92972;1205;80416;-67
2021/08/16 09:25:16;;;;;;;5.30;4.30;;;;;;;26.90;59.68;99670.86;92988;1206;80106;-68
2021/08/16 09:27:25;;;;;;;5.10;4.60;;;;;;;27.77;58.05;99669.20;93004;1206;98127;-68
2021/08/16 09:29:36;;;;;;;6.10;4.80;;;;;;;27.93;57.43;99666.79;93007;1206;89206;-70
2021/08/16 09:31:56;;;;;;;9.30;5.20;;;;;;;28.22;56.41;99665.29;92984;1206;94242;-70
2021/08/16 09:34:04;;;;;;;5.30;4.30;;;;;;;28.23;55.72;99659.44;93020;1206;80495;-69
2021/08/16 09:36:12;;;;;;;6.30;4.50;;;;;;;28.06;55.41;99656.36;93006;1206;81770;-70
2021/08/16 09:38:31;;;;;;;6.30;4.70;;;;;;;27.86;55.47;99653.75;92964;1206;98133;-69
2021/08/16 09:40:42;;;;;;;5.40;4.30;;;;;;;27.67;55.90;99661.27;92974;1206;87085;-70
2021/08/16 09:42:58;;;;;;;6.80;4.20;;;;;;;27.71;56.23;99669.70;92976;1206;93548;-69
2021/08/16 09:45:08;;;;;;;4.90;4.50;;;;;;;28.15;56.62;99672.23;93002;1206;79774;-64
2021/08/16 09:47:17;;;;;;;5.10;4.60;;;;;;;28.56;56.58;99675.10;93008;1206;80217;-72
2021/08/16 09:49:25;;;;;;;7.80;4.30;;;;;;;28.91;56.02;99673.98;93002;1206;98506;-69
2021/08/16 09:51:35;;;;;;;5.10;4.10;;;;;;;29.05;55.23;99673.81;93013;1206;87581;-70
2021/08/16 09:53:43;;;;;;;5.80;4.60;;;;;;;29.32;55.41;99678.65;93002;1206;93449;-70
2021/08/16 09:55:57;;;;;;;4.90;4.10;;;;;;;29.59;54.95;99678.23;92974;1206;79757;-65
2021/08/16 09:58:08;;;;;;;5.50;3.80;;;;;;;29.68;54.01;99676.02;93000;1206;82172;-69
2021/08/16 10:00:18;;;;;;;4.70;3.80;;;;;;;29.52;51.54;99674.14;92974;1206;98099;-64
2021/08/16 10:02:29;;;;;;;5.40;3.60;;;;;;;29.32;52.07;99670.36;93045;1206;88507;-63
2021/08/16 10:04:37;;;;;;;5.50;4.00;;;;;;;29.39;52.03;99667.75;92991;1206;94241;-67